sensor_id;sensor_type;location;lat;lon;timestamp;temperature;humidity
23801;DHT22;12081;48.614;10.226;2023-04-03T00:01:52;2.10;99.90
23801;DHT22;12081;48.614;10.226;2023-04-03T00:04:37;2.10;99.90
23801;DHT22;12081;48.614;10.226;2023-04-03T00:07:21;2.20;99.90
23801;DHT22;12081;48.614;10.226;2023-04-03T00:10:06;2.10;99.90
23801;DHT22;12081;48.614;10.226;2023-04-03T00:12:51;2.20;99.90
23801;DHT22;12081;48.614;10.226;2023-04-03T00:15:36;2.20;99.90
23801;DHT22;12081;48.614;10.226;2023-04-03T00:18:21;2.20;99.90
23801;DHT22;12081;48.614;10.226;2023-04-03T00:21:06;2.20;99.90
23801;DHT22;12081;48.614;10.226;2023-04-03T00:23:50;2.20;99.90
23801;DHT22;12081;48.614;10.226;2023-04-03T00:26:35;2.20;99.90
23801;DHT22;12081;48.614;10.226;2023-04-03T00:29:19;2.20;99.90
23801;DHT22;12081;48.614;10.226;2023-04-03T00:32:04;2.10;99.90
23801;DHT22;12081;48.614;10.226;2023-04-03T00:34:49;2.10;99.90
23801;DHT22;12081;48.614;10.226;2023-04-03T00:37:34;2.20;99.90
23801;DHT22;12081;48.614;10.226;2023-04-03T00:40:20;2.20;99.90
23801;DHT22;12081;48.614;10.226;2023-04-03T00:43:20;2.20;99.90
23801;DHT22;12081;48.614;10.226;2023-04-03T00:46:05;2.10;99.90
23801;DHT22;12081;48.614;10.226;2023-04-03T00:48:49;2.20;99.90
23801;DHT22;12081;48.614;10.226;2023-04-03T00:51:34;2.20;99.90
23801;DHT22;12081;48.614;10.226;2023-04-03T00:54:20;2.20;99.90
23801;DHT22;12081;48.614;10.226;2023-04-03T00:57:05;2.20;99.90
23801;DHT22;12081;48.614;10.226;2023-04-03T00:59:54;2.20;99.90
23801;DHT22;12081;48.614;10.226;2023-04-03T01:02:40;2.10;99.90
23801;DHT22;12081;48.614;10.226;2023-04-03T01:05:25;2.10;99.90
23801;DHT22;12081;48.614;10.226;2023-04-03T01:08:09;2.10;99.90
23801;DHT22;12081;48.614;10.226;2023-04-03T01:10:54;2.10;99.90
23801;DHT22;12081;48.614;10.226;2023-04-03T01:13:39;3.50;99.90
23801;DHT22;12081;48.614;10.226;2023-04-03T01:16:24;2.10;99.90
23801;DHT22;12081;48.614;10.226;2023-04-03T01:19:13;2.50;99.90
23801;DHT22;12081;48.614;10.226;2023-04-03T01:22:15;2.10;99.90
23801;DHT22;12081;48.614;10.226;2023-04-03T01:25:02;2.10;99.90
23801;DHT22;12081;48.614;10.226;2023-04-03T01:27:47;2.10;99.90
23801;DHT22;12081;48.614;10.226;2023-04-03T01:30:34;2.10;99.90
23801;DHT22;12081;48.614;10.226;2023-04-03T01:33:20;2.10;99.90
23801;DHT22;12081;48.614;10.226;2023-04-03T01:36:05;2.10;99.90
23801;DHT22;12081;48.614;10.226;2023-04-03T01:38:50;2.10;99.90
23801;DHT22;12081;48.614;10.226;2023-04-03T01:41:35;2.10;99.90
23801;DHT22;12081;48.614;10.226;2023-04-03T01:44:19;2.10;99.90
23801;DHT22;12081;48.614;10.226;2023-04-03T01:47:06;2.00;99.90
23801;DHT22;12081;48.614;10.226;2023-04-03T01:49:50;2.00;99.90
23801;DHT22;12081;48.614;10.226;2023-04-03T01:52:35;2.00;99.90
23801;DHT22;12081;48.614;10.226;2023-04-03T01:55:20;2.00;99.90
23801;DHT22;12081;48.614;10.226;2023-04-03T01:58:04;1.90;99.90
23801;DHT22;12081;48.614;10.226;2023-04-03T02:00:49;1.90;99.90
23801;DHT22;12081;48.614;10.226;2023-04-03T02:03:33;2.00;99.90
23801;DHT22;12081;48.614;10.226;2023-04-03T02:06:18;1.90;99.90
23801;DHT22;12081;48.614;10.226;2023-04-03T02:09:03;2.00;99.90
23801;DHT22;12081;48.614;10.226;2023-04-03T02:11:48;1.90;99.90
23801;DHT22;12081;48.614;10.226;2023-04-03T02:14:32;1.90;99.90
23801;DHT22;12081;48.614;10.226;2023-04-03T02:17:17;1.90;99.90
23801;DHT22;12081;48.614;10.226;2023-04-03T02:20:02;1.90;99.90
23801;DHT22;12081;48.614;10.226;2023-04-03T02:22:47;1.90;99.90
23801;DHT22;12081;48.614;10.226;2023-04-03T02:25:31;1.90;99.90
23801;DHT22;12081;48.614;10.226;2023-04-03T02:28:16;1.90;99.90
23801;DHT22;12081;48.614;10.226;2023-04-03T02:31:00;1.90;99.90
23801;DHT22;12081;48.614;10.226;2023-04-03T02:33:45;3.30;99.90
23801;DHT22;12081;48.614;10.226;2023-04-03T02:36:30;1.90;99.90
23801;DHT22;12081;48.614;10.226;2023-04-03T02:39:14;1.80;99.90
23801;DHT22;12081;48.614;10.226;2023-04-03T02:42:00;1.80;99.90
23801;DHT22;12081;48.614;10.226;2023-04-03T02:44:44;1.80;99.90
23801;DHT22;12081;48.614;10.226;2023-04-03T02:47:28;4.20;99.90
23801;DHT22;12081;48.614;10.226;2023-04-03T02:50:13;1.80;99.90
23801;DHT22;12081;48.614;10.226;2023-04-03T02:52:57;4.10;99.90
23801;DHT22;12081;48.614;10.226;2023-04-03T02:55:41;1.60;99.90
23801;DHT22;12081;48.614;10.226;2023-04-03T02:58:25;3.50;99.90
23801;DHT22;12081;48.614;10.226;2023-04-03T03:01:09;1.50;99.90
23801;DHT22;12081;48.614;10.226;2023-04-03T03:03:54;1.70;99.90
23801;DHT22;12081;48.614;10.226;2023-04-03T03:06:38;1.80;99.90
23801;DHT22;12081;48.614;10.226;2023-04-03T03:09:22;4.30;99.90
23801;DHT22;12081;48.614;10.226;2023-04-03T03:12:06;1.80;99.90
23801;DHT22;12081;48.614;10.226;2023-04-03T03:14:50;4.20;99.90
23801;DHT22;12081;48.614;10.226;2023-04-03T03:17:34;1.80;99.90
23801;DHT22;12081;48.614;10.226;2023-04-03T03:20:19;1.80;99.90
23801;DHT22;12081;48.614;10.226;2023-04-03T03:23:05;4.60;99.90
23801;DHT22;12081;48.614;10.226;2023-04-03T03:25:53;3.10;99.90
23801;DHT22;12081;48.614;10.226;2023-04-03T03:28:39;4.60;99.90
23801;DHT22;12081;48.614;10.226;2023-04-03T03:31:24;4.30;99.90
23801;DHT22;12081;48.614;10.226;2023-04-03T05:31:20;1.30;99.90
23801;DHT22;12081;48.614;10.226;2023-04-03T05:34:04;1.30;99.90
23801;DHT22;12081;48.614;10.226;2023-04-03T05:36:49;1.30;99.90
23801;DHT22;12081;48.614;10.226;2023-04-03T05:39:33;1.30;99.90
23801;DHT22;12081;48.614;10.226;2023-04-03T05:42:17;1.30;99.90
23801;DHT22;12081;48.614;10.226;2023-04-03T05:45:02;1.30;99.90
23801;DHT22;12081;48.614;10.226;2023-04-03T05:47:46;1.40;99.90
23801;DHT22;12081;48.614;10.226;2023-04-03T05:50:30;1.30;99.90
23801;DHT22;12081;48.614;10.226;2023-04-03T05:53:22;1.40;99.90
23801;DHT22;12081;48.614;10.226;2023-04-03T05:56:08;1.40;99.90
23801;DHT22;12081;48.614;10.226;2023-04-03T05:58:52;1.40;99.90
23801;DHT22;12081;48.614;10.226;2023-04-03T06:01:37;1.40;99.90
23801;DHT22;12081;48.614;10.226;2023-04-03T06:04:21;1.40;99.90
23801;DHT22;12081;48.614;10.226;2023-04-03T06:07:06;1.50;99.90
23801;DHT22;12081;48.614;10.226;2023-04-03T06:09:51;1.50;99.90
23801;DHT22;12081;48.614;10.226;2023-04-03T06:12:35;1.60;99.90
23801;DHT22;12081;48.614;10.226;2023-04-03T06:15:19;1.70;99.90
23801;DHT22;12081;48.614;10.226;2023-04-03T06:18:04;1.70;99.90
23801;DHT22;12081;48.614;10.226;2023-04-03T06:20:48;1.80;99.90
23801;DHT22;12081;48.614;10.226;2023-04-03T06:23:32;1.80;99.90
23801;DHT22;12081;48.614;10.226;2023-04-03T06:26:16;1.90;99.90
23801;DHT22;12081;48.614;10.226;2023-04-03T06:29:01;1.90;99.90
23801;DHT22;12081;48.614;10.226;2023-04-03T06:31:46;2.00;99.90
23801;DHT22;12081;48.614;10.226;2023-04-03T06:34:30;2.10;99.90
23801;DHT22;12081;48.614;10.226;2023-04-03T06:37:19;2.10;99.90
23801;DHT22;12081;48.614;10.226;2023-04-03T06:40:05;2.20;99.90
23801;DHT22;12081;48.614;10.226;2023-04-03T06:42:49;2.30;99.90
23801;DHT22;12081;48.614;10.226;2023-04-03T06:45:33;2.40;99.90
23801;DHT22;12081;48.614;10.226;2023-04-03T06:48:17;2.50;99.90
23801;DHT22;12081;48.614;10.226;2023-04-03T06:51:01;2.50;99.90
23801;DHT22;12081;48.614;10.226;2023-04-03T06:53:46;2.60;99.90
23801;DHT22;12081;48.614;10.226;2023-04-03T06:56:31;2.60;99.90
23801;DHT22;12081;48.614;10.226;2023-04-03T06:59:15;2.60;99.90
23801;DHT22;12081;48.614;10.226;2023-04-03T07:01:59;2.70;99.90
23801;DHT22;12081;48.614;10.226;2023-04-03T07:04:43;2.70;99.90
23801;DHT22;12081;48.614;10.226;2023-04-03T07:07:28;2.90;99.90
23801;DHT22;12081;48.614;10.226;2023-04-03T07:10:12;3.20;99.90
23801;DHT22;12081;48.614;10.226;2023-04-03T07:12:56;3.20;99.90
23801;DHT22;12081;48.614;10.226;2023-04-03T07:15:40;3.10;99.90
23801;DHT22;12081;48.614;10.226;2023-04-03T07:18:25;3.30;99.90
23801;DHT22;12081;48.614;10.226;2023-04-03T07:21:09;3.30;99.90
23801;DHT22;12081;48.614;10.226;2023-04-03T07:23:54;3.60;99.90
23801;DHT22;12081;48.614;10.226;2023-04-03T07:26:39;3.70;99.90
23801;DHT22;12081;48.614;10.226;2023-04-03T07:29:23;3.80;99.90
23801;DHT22;12081;48.614;10.226;2023-04-03T07:32:07;4.00;99.90
23801;DHT22;12081;48.614;10.226;2023-04-03T07:34:51;4.00;99.90
23801;DHT22;12081;48.614;10.226;2023-04-03T07:37:35;3.90;99.90
23801;DHT22;12081;48.614;10.226;2023-04-03T07:40:20;4.00;99.90
23801;DHT22;12081;48.614;10.226;2023-04-03T07:43:05;4.20;99.90
23801;DHT22;12081;48.614;10.226;2023-04-03T07:45:49;4.40;99.90
23801;DHT22;12081;48.614;10.226;2023-04-03T07:48:35;5.00;99.90
23801;DHT22;12081;48.614;10.226;2023-04-03T07:51:19;5.40;99.90
23801;DHT22;12081;48.614;10.226;2023-04-03T07:54:04;5.80;99.90
23801;DHT22;12081;48.614;10.226;2023-04-03T07:56:48;7.00;99.90
23801;DHT22;12081;48.614;10.226;2023-04-03T07:59:32;7.70;99.90
23801;DHT22;12081;48.614;10.226;2023-04-03T08:02:17;8.30;98.90
23801;DHT22;12081;48.614;10.226;2023-04-03T08:05:01;8.70;97.30
23801;DHT22;12081;48.614;10.226;2023-04-03T08:07:46;9.20;94.90
23801;DHT22;12081;48.614;10.226;2023-04-03T08:10:30;9.20;91.90
23801;DHT22;12081;48.614;10.226;2023-04-03T08:13:14;8.20;93.90
23801;DHT22;12081;48.614;10.226;2023-04-03T08:16:07;7.80;96.20
23801;DHT22;12081;48.614;10.226;2023-04-03T08:18:52;8.50;94.60
23801;DHT22;12081;48.614;10.226;2023-04-03T08:21:36;7.90;93.90
23801;DHT22;12081;48.614;10.226;2023-04-03T08:24:20;7.10;96.50
23801;DHT22;12081;48.614;10.226;2023-04-03T08:27:04;6.70;99.00
23801;DHT22;12081;48.614;10.226;2023-04-03T08:29:48;6.50;99.90
23801;DHT22;12081;48.614;10.226;2023-04-03T08:32:33;6.20;99.90
23801;DHT22;12081;48.614;10.226;2023-04-03T08:35:18;5.80;99.90
23801;DHT22;12081;48.614;10.226;2023-04-03T08:38:03;5.60;99.90
23801;DHT22;12081;48.614;10.226;2023-04-03T08:40:47;5.30;99.90
23801;DHT22;12081;48.614;10.226;2023-04-03T08:44:03;5.30;99.90
23801;DHT22;12081;48.614;10.226;2023-04-03T08:49:59;5.40;99.90
23801;DHT22;12081;48.614;10.226;2023-04-03T08:52:53;5.40;99.90
23801;DHT22;12081;48.614;10.226;2023-04-03T08:55:43;5.30;99.90
23801;DHT22;12081;48.614;10.226;2023-04-03T08:58:30;5.20;99.90
23801;DHT22;12081;48.614;10.226;2023-04-03T09:01:28;5.30;99.90
23801;DHT22;12081;48.614;10.226;2023-04-03T09:04:15;5.20;99.90
23801;DHT22;12081;48.614;10.226;2023-04-03T09:07:15;5.20;99.90
23801;DHT22;12081;48.614;10.226;2023-04-03T09:10:01;5.10;99.90
23801;DHT22;12081;48.614;10.226;2023-04-03T09:12:52;5.00;99.90
23801;DHT22;12081;48.614;10.226;2023-04-03T09:15:37;5.00;99.90
23801;DHT22;12081;48.614;10.226;2023-04-03T09:18:25;4.90;99.90
23801;DHT22;12081;48.614;10.226;2023-04-03T09:21:24;5.00;99.90
23801;DHT22;12081;48.614;10.226;2023-04-03T09:24:11;5.00;99.90
23801;DHT22;12081;48.614;10.226;2023-04-03T09:26:58;5.00;99.90
23801;DHT22;12081;48.614;10.226;2023-04-03T09:29:44;5.00;99.90
23801;DHT22;12081;48.614;10.226;2023-04-03T09:32:32;4.90;99.90
23801;DHT22;12081;48.614;10.226;2023-04-03T09:35:19;4.90;99.90
23801;DHT22;12081;48.614;10.226;2023-04-03T09:41:16;4.80;99.90
23801;DHT22;12081;48.614;10.226;2023-04-03T09:44:00;4.50;99.90
23801;DHT22;12081;48.614;10.226;2023-04-03T09:46:45;4.30;99.90
23801;DHT22;12081;48.614;10.226;2023-04-03T09:49:30;4.30;99.90
23801;DHT22;12081;48.614;10.226;2023-04-03T09:52:24;4.20;99.90
23801;DHT22;12081;48.614;10.226;2023-04-03T09:55:15;4.20;99.90
23801;DHT22;12081;48.614;10.226;2023-04-03T09:58:02;4.20;99.90
23801;DHT22;12081;48.614;10.226;2023-04-03T10:00:54;4.10;99.90
23801;DHT22;12081;48.614;10.226;2023-04-03T10:03:40;4.10;99.90
23801;DHT22;12081;48.614;10.226;2023-04-03T10:06:32;4.20;99.90
23801;DHT22;12081;48.614;10.226;2023-04-03T10:14:57;4.10;99.90
23801;DHT22;12081;48.614;10.226;2023-04-03T10:17:54;4.00;99.90
23801;DHT22;12081;48.614;10.226;2023-04-03T10:20:44;3.90;99.90
23801;DHT22;12081;48.614;10.226;2023-04-03T10:23:44;3.90;99.90
23801;DHT22;12081;48.614;10.226;2023-04-03T10:26:49;4.10;99.90
23801;DHT22;12081;48.614;10.226;2023-04-03T10:42:43;4.70;99.90
23801;DHT22;12081;48.614;10.226;2023-04-03T10:48:40;4.90;99.90
23801;DHT22;12081;48.614;10.226;2023-04-03T10:51:37;4.90;99.90
23801;DHT22;12081;48.614;10.226;2023-04-03T10:54:44;4.80;99.90
23801;DHT22;12081;48.614;10.226;2023-04-03T10:57:30;4.60;99.90
23801;DHT22;12081;48.614;10.226;2023-04-03T11:00:19;4.50;99.90
23801;DHT22;12081;48.614;10.226;2023-04-03T11:03:13;4.50;99.90
23801;DHT22;12081;48.614;10.226;2023-04-03T11:06:01;4.60;99.90
23801;DHT22;12081;48.614;10.226;2023-04-03T11:08:56;4.80;99.90
23801;DHT22;12081;48.614;10.226;2023-04-03T11:11:42;4.80;99.90
23801;DHT22;12081;48.614;10.226;2023-04-03T11:14:30;4.70;99.90
23801;DHT22;12081;48.614;10.226;2023-04-03T11:20:18;4.50;99.90
23801;DHT22;12081;48.614;10.226;2023-04-03T11:23:22;4.60;99.90
23801;DHT22;12081;48.614;10.226;2023-04-03T11:28:56;4.70;99.90
23801;DHT22;12081;48.614;10.226;2023-04-03T11:32:01;4.70;99.90
23801;DHT22;12081;48.614;10.226;2023-04-03T11:34:52;5.00;99.90
23801;DHT22;12081;48.614;10.226;2023-04-03T11:37:40;5.30;99.90
23801;DHT22;12081;48.614;10.226;2023-04-03T11:40:29;5.30;99.90
23801;DHT22;12081;48.614;10.226;2023-04-03T11:46:07;5.00;99.90
23801;DHT22;12081;48.614;10.226;2023-04-03T11:48:51;4.90;99.90
23801;DHT22;12081;48.614;10.226;2023-04-03T11:51:41;5.00;99.90
23801;DHT22;12081;48.614;10.226;2023-04-03T12:03:58;5.30;98.70
23801;DHT22;12081;48.614;10.226;2023-04-03T12:12:33;5.10;98.00
23801;DHT22;12081;48.614;10.226;2023-04-03T12:15:47;5.20;99.00
23801;DHT22;12081;48.614;10.226;2023-04-03T12:18:53;5.50;97.80
23801;DHT22;12081;48.614;10.226;2023-04-03T12:24:34;5.30;96.80
23801;DHT22;12081;48.614;10.226;2023-04-03T12:27:33;5.10;98.10
23801;DHT22;12081;48.614;10.226;2023-04-03T12:30:27;5.00;98.60
23801;DHT22;12081;48.614;10.226;2023-04-03T12:33:23;4.90;99.40
23801;DHT22;12081;48.614;10.226;2023-04-03T12:36:22;4.80;99.30
23801;DHT22;12081;48.614;10.226;2023-04-03T12:39:33;5.00;98.40
23801;DHT22;12081;48.614;10.226;2023-04-03T12:45:20;5.70;97.60
23801;DHT22;12081;48.614;10.226;2023-04-03T12:48:14;6.10;95.30
23801;DHT22;12081;48.614;10.226;2023-04-03T12:51:00;6.40;92.70
23801;DHT22;12081;48.614;10.226;2023-04-03T12:53:45;6.90;91.80
23801;DHT22;12081;48.614;10.226;2023-04-03T12:56:31;7.00;88.60
23801;DHT22;12081;48.614;10.226;2023-04-03T12:59:24;7.20;87.90
23801;DHT22;12081;48.614;10.226;2023-04-03T13:05:09;9.60;76.10
23801;DHT22;12081;48.614;10.226;2023-04-03T13:08:00;9.10;72.20
23801;DHT22;12081;48.614;10.226;2023-04-03T13:10:59;8.50;73.90
23801;DHT22;12081;48.614;10.226;2023-04-03T13:13:58;8.10;76.30
23801;DHT22;12081;48.614;10.226;2023-04-03T13:17:12;7.70;78.30
23801;DHT22;12081;48.614;10.226;2023-04-03T13:20:10;7.20;79.00
23801;DHT22;12081;48.614;10.226;2023-04-03T13:23:16;7.10;78.70
23801;DHT22;12081;48.614;10.226;2023-04-03T13:26:01;6.80;77.40
23801;DHT22;12081;48.614;10.226;2023-04-03T13:28:47;6.70;78.30
23801;DHT22;12081;48.614;10.226;2023-04-03T13:31:35;6.40;78.10
23801;DHT22;12081;48.614;10.226;2023-04-03T13:34:20;6.10;79.90
23801;DHT22;12081;48.614;10.226;2023-04-03T13:37:05;6.10;80.60
23801;DHT22;12081;48.614;10.226;2023-04-03T13:40:11;6.00;78.50
23801;DHT22;12081;48.614;10.226;2023-04-03T13:43:05;5.90;78.70
23801;DHT22;12081;48.614;10.226;2023-04-03T13:48:55;6.00;81.00
23801;DHT22;12081;48.614;10.226;2023-04-03T13:51:39;6.30;81.10
23801;DHT22;12081;48.614;10.226;2023-04-03T13:54:30;6.40;79.30
23801;DHT22;12081;48.614;10.226;2023-04-03T13:57:16;6.20;78.10
23801;DHT22;12081;48.614;10.226;2023-04-03T14:00:18;6.20;79.60
23801;DHT22;12081;48.614;10.226;2023-04-03T14:03:03;6.20;80.80
23801;DHT22;12081;48.614;10.226;2023-04-03T14:05:55;6.30;75.90
23801;DHT22;12081;48.614;10.226;2023-04-03T14:08:39;6.20;76.70
23801;DHT22;12081;48.614;10.226;2023-04-03T14:11:28;6.10;74.50
23801;DHT22;12081;48.614;10.226;2023-04-03T14:14:16;6.30;74.60
23801;DHT22;12081;48.614;10.226;2023-04-03T14:17:10;6.30;74.40
23801;DHT22;12081;48.614;10.226;2023-04-03T14:19:57;6.50;76.10
23801;DHT22;12081;48.614;10.226;2023-04-03T14:22:42;6.50;73.30
23801;DHT22;12081;48.614;10.226;2023-04-03T14:25:26;6.40;71.00
23801;DHT22;12081;48.614;10.226;2023-04-03T14:28:17;6.40;72.50
23801;DHT22;12081;48.614;10.226;2023-04-03T14:31:02;6.40;73.00
23801;DHT22;12081;48.614;10.226;2023-04-03T14:33:46;6.30;71.80
23801;DHT22;12081;48.614;10.226;2023-04-03T14:36:31;6.30;73.40
23801;DHT22;12081;48.614;10.226;2023-04-03T14:39:18;6.50;73.90
23801;DHT22;12081;48.614;10.226;2023-04-03T14:42:02;6.70;71.80
23801;DHT22;12081;48.614;10.226;2023-04-03T14:44:46;6.90;70.80
23801;DHT22;12081;48.614;10.226;2023-04-03T14:47:31;6.70;70.90
23801;DHT22;12081;48.614;10.226;2023-04-03T14:50:21;6.40;72.50
23801;DHT22;12081;48.614;10.226;2023-04-03T14:53:06;6.30;73.50
23801;DHT22;12081;48.614;10.226;2023-04-03T14:55:52;4.90;74.30
23801;DHT22;12081;48.614;10.226;2023-04-03T14:58:36;6.20;73.70
23801;DHT22;12081;48.614;10.226;2023-04-03T15:01:21;6.10;74.40
23801;DHT22;12081;48.614;10.226;2023-04-03T15:04:19;6.00;76.00
23801;DHT22;12081;48.614;10.226;2023-04-03T15:07:04;5.80;72.20
23801;DHT22;12081;48.614;10.226;2023-04-03T15:09:49;6.50;74.40
23801;DHT22;12081;48.614;10.226;2023-04-03T15:12:33;5.60;73.90
23801;DHT22;12081;48.614;10.226;2023-04-03T15:15:19;5.60;73.20
23801;DHT22;12081;48.614;10.226;2023-04-03T15:18:09;5.60;72.10
23801;DHT22;12081;48.614;10.226;2023-04-03T15:20:54;5.80;73.40
23801;DHT22;12081;48.614;10.226;2023-04-03T15:23:39;6.10;72.30
23801;DHT22;12081;48.614;10.226;2023-04-03T15:26:23;6.50;72.30
23801;DHT22;12081;48.614;10.226;2023-04-03T15:29:11;6.40;66.80
23801;DHT22;12081;48.614;10.226;2023-04-03T15:31:55;6.10;65.90
23801;DHT22;12081;48.614;10.226;2023-04-03T15:34:40;5.90;68.50
23801;DHT22;12081;48.614;10.226;2023-04-03T15:37:24;5.70;66.80
23801;DHT22;12081;48.614;10.226;2023-04-03T15:40:09;5.60;67.00
23801;DHT22;12081;48.614;10.226;2023-04-03T15:42:53;5.50;66.80
23801;DHT22;12081;48.614;10.226;2023-04-03T15:45:38;5.60;67.50
23801;DHT22;12081;48.614;10.226;2023-04-03T15:48:22;5.60;67.80
23801;DHT22;12081;48.614;10.226;2023-04-03T15:51:06;5.60;69.90
23801;DHT22;12081;48.614;10.226;2023-04-03T15:53:50;5.70;69.60
23801;DHT22;12081;48.614;10.226;2023-04-03T15:56:35;5.70;69.50
23801;DHT22;12081;48.614;10.226;2023-04-03T15:59:19;5.70;70.20
23801;DHT22;12081;48.614;10.226;2023-04-03T16:02:06;5.80;69.50
23801;DHT22;12081;48.614;10.226;2023-04-03T16:04:53;5.80;69.80
23801;DHT22;12081;48.614;10.226;2023-04-03T16:07:39;5.80;69.40
23801;DHT22;12081;48.614;10.226;2023-04-03T16:10:23;5.80;68.90
23801;DHT22;12081;48.614;10.226;2023-04-03T16:13:08;5.70;70.00
23801;DHT22;12081;48.614;10.226;2023-04-03T16:15:53;5.70;72.00
23801;DHT22;12081;48.614;10.226;2023-04-03T16:18:37;5.70;72.00
23801;DHT22;12081;48.614;10.226;2023-04-03T16:21:22;5.60;72.50
23801;DHT22;12081;48.614;10.226;2023-04-03T16:24:06;5.50;70.50
23801;DHT22;12081;48.614;10.226;2023-04-03T16:26:50;5.40;69.10
23801;DHT22;12081;48.614;10.226;2023-04-03T16:29:34;5.30;71.40
23801;DHT22;12081;48.614;10.226;2023-04-03T16:32:19;5.10;67.80
23801;DHT22;12081;48.614;10.226;2023-04-03T16:35:03;5.00;69.20
23801;DHT22;12081;48.614;10.226;2023-04-03T16:37:48;4.90;69.80
23801;DHT22;12081;48.614;10.226;2023-04-03T16:40:32;4.80;71.00
23801;DHT22;12081;48.614;10.226;2023-04-03T16:43:17;4.80;70.20
23801;DHT22;12081;48.614;10.226;2023-04-03T16:46:02;4.90;71.40
23801;DHT22;12081;48.614;10.226;2023-04-03T16:48:46;5.80;70.30
23801;DHT22;12081;48.614;10.226;2023-04-03T16:51:30;4.90;70.00
23801;DHT22;12081;48.614;10.226;2023-04-03T16:54:16;4.90;68.90
23801;DHT22;12081;48.614;10.226;2023-04-03T16:56:59;4.90;70.50
23801;DHT22;12081;48.614;10.226;2023-04-03T16:59:43;4.80;70.80
23801;DHT22;12081;48.614;10.226;2023-04-03T17:02:27;4.70;71.20
23801;DHT22;12081;48.614;10.226;2023-04-03T17:05:13;4.60;72.00
23801;DHT22;12081;48.614;10.226;2023-04-03T17:07:57;4.50;71.40
23801;DHT22;12081;48.614;10.226;2023-04-03T17:10:41;4.50;70.90
23801;DHT22;12081;48.614;10.226;2023-04-03T17:13:25;4.40;70.80
23801;DHT22;12081;48.614;10.226;2023-04-03T17:16:15;4.30;69.70
23801;DHT22;12081;48.614;10.226;2023-04-03T17:19:00;4.30;70.90
23801;DHT22;12081;48.614;10.226;2023-04-03T17:21:45;4.30;71.50
23801;DHT22;12081;48.614;10.226;2023-04-03T17:24:29;4.30;72.00
23801;DHT22;12081;48.614;10.226;2023-04-03T17:27:13;4.30;72.70
23801;DHT22;12081;48.614;10.226;2023-04-03T17:29:57;4.30;73.20
23801;DHT22;12081;48.614;10.226;2023-04-03T17:32:42;4.30;73.40
23801;DHT22;12081;48.614;10.226;2023-04-03T17:35:26;4.30;75.30
23801;DHT22;12081;48.614;10.226;2023-04-03T17:38:10;4.30;75.60
23801;DHT22;12081;48.614;10.226;2023-04-03T17:40:59;4.20;76.60
23801;DHT22;12081;48.614;10.226;2023-04-03T17:43:43;4.20;77.00
23801;DHT22;12081;48.614;10.226;2023-04-03T17:46:27;4.10;78.10
23801;DHT22;12081;48.614;10.226;2023-04-03T17:49:12;4.00;78.80
23801;DHT22;12081;48.614;10.226;2023-04-03T17:51:58;3.90;80.80
23801;DHT22;12081;48.614;10.226;2023-04-03T17:54:42;3.80;80.10
23801;DHT22;12081;48.614;10.226;2023-04-03T17:57:26;3.80;81.20
23801;DHT22;12081;48.614;10.226;2023-04-03T18:00:11;3.80;83.40
23801;DHT22;12081;48.614;10.226;2023-04-03T18:02:55;3.70;84.80
23801;DHT22;12081;48.614;10.226;2023-04-03T18:05:40;3.70;84.50
23801;DHT22;12081;48.614;10.226;2023-04-03T18:08:24;3.70;84.90
23801;DHT22;12081;48.614;10.226;2023-04-03T18:11:08;3.90;87.40
23801;DHT22;12081;48.614;10.226;2023-04-03T18:13:54;3.60;87.50
23801;DHT22;12081;48.614;10.226;2023-04-03T18:16:40;3.60;89.40
23801;DHT22;12081;48.614;10.226;2023-04-03T18:19:25;3.60;90.00
23801;DHT22;12081;48.614;10.226;2023-04-03T18:22:13;3.60;90.00
23801;DHT22;12081;48.614;10.226;2023-04-03T18:24:59;3.60;90.20
23801;DHT22;12081;48.614;10.226;2023-04-03T18:27:44;3.50;90.10
23801;DHT22;12081;48.614;10.226;2023-04-03T18:30:29;3.50;90.00
23801;DHT22;12081;48.614;10.226;2023-04-03T18:33:14;3.50;90.30
23801;DHT22;12081;48.614;10.226;2023-04-03T18:35:58;3.50;90.80
23801;DHT22;12081;48.614;10.226;2023-04-03T18:38:42;4.80;91.30
23801;DHT22;12081;48.614;10.226;2023-04-03T18:41:34;3.40;91.60
23801;DHT22;12081;48.614;10.226;2023-04-03T18:44:22;3.40;91.80
23801;DHT22;12081;48.614;10.226;2023-04-03T18:47:08;4.00;91.60
23801;DHT22;12081;48.614;10.226;2023-04-03T18:49:51;3.40;91.40
23801;DHT22;12081;48.614;10.226;2023-04-03T18:52:36;3.40;91.90
23801;DHT22;12081;48.614;10.226;2023-04-03T18:55:20;3.30;91.40
23801;DHT22;12081;48.614;10.226;2023-04-03T18:58:04;3.30;91.70
23801;DHT22;12081;48.614;10.226;2023-04-03T19:00:48;3.30;92.20
23801;DHT22;12081;48.614;10.226;2023-04-03T19:03:33;3.30;92.20
23801;DHT22;12081;48.614;10.226;2023-04-03T19:06:19;3.20;92.40
23801;DHT22;12081;48.614;10.226;2023-04-03T19:09:05;3.20;92.10
23801;DHT22;12081;48.614;10.226;2023-04-03T19:11:52;3.20;92.60
23801;DHT22;12081;48.614;10.226;2023-04-03T19:14:36;3.20;92.60
23801;DHT22;12081;48.614;10.226;2023-04-03T19:17:20;3.10;92.50
23801;DHT22;12081;48.614;10.226;2023-04-03T19:20:05;3.10;92.50
23801;DHT22;12081;48.614;10.226;2023-04-03T19:22:49;3.10;92.70
23801;DHT22;12081;48.614;10.226;2023-04-03T19:25:33;3.10;92.80
23801;DHT22;12081;48.614;10.226;2023-04-03T19:28:17;3.10;92.80
23801;DHT22;12081;48.614;10.226;2023-04-03T19:31:01;3.00;92.90
23801;DHT22;12081;48.614;10.226;2023-04-03T19:33:46;3.00;93.10
23801;DHT22;12081;48.614;10.226;2023-04-03T19:36:31;3.00;93.70
23801;DHT22;12081;48.614;10.226;2023-04-03T19:39:16;3.00;94.10
23801;DHT22;12081;48.614;10.226;2023-04-03T19:42:01;3.00;95.20
23801;DHT22;12081;48.614;10.226;2023-04-03T19:44:46;3.00;95.40
23801;DHT22;12081;48.614;10.226;2023-04-03T19:47:32;2.90;91.50
23801;DHT22;12081;48.614;10.226;2023-04-03T19:50:18;2.90;90.70
23801;DHT22;12081;48.614;10.226;2023-04-03T19:53:02;2.90;89.80
23801;DHT22;12081;48.614;10.226;2023-04-03T19:55:47;2.90;89.10
23801;DHT22;12081;48.614;10.226;2023-04-03T19:58:31;2.80;88.90
23801;DHT22;12081;48.614;10.226;2023-04-03T20:01:16;2.80;89.60
23801;DHT22;12081;48.614;10.226;2023-04-03T20:04:00;2.70;90.30
23801;DHT22;12081;48.614;10.226;2023-04-03T20:06:45;2.70;90.40
23801;DHT22;12081;48.614;10.226;2023-04-03T20:09:29;2.60;90.90
23801;DHT22;12081;48.614;10.226;2023-04-03T20:12:14;2.60;91.40
23801;DHT22;12081;48.614;10.226;2023-04-03T20:14:58;2.50;91.20
23801;DHT22;12081;48.614;10.226;2023-04-03T20:17:47;2.40;91.20
23801;DHT22;12081;48.614;10.226;2023-04-03T20:20:31;2.40;91.40
23801;DHT22;12081;48.614;10.226;2023-04-03T20:23:15;2.30;91.60
23801;DHT22;12081;48.614;10.226;2023-04-03T20:26:00;2.30;92.10
23801;DHT22;12081;48.614;10.226;2023-04-03T20:28:44;2.20;92.40
23801;DHT22;12081;48.614;10.226;2023-04-03T20:31:30;2.10;92.70
23801;DHT22;12081;48.614;10.226;2023-04-03T20:34:14;2.10;93.00